Timeline UpdatesTrip UpdatesNews PostsPvt PostsTravel TipsAdmin PostsConv PostsFollowed PostsChat RequestsBlog PostsPNR Posts

Disclaimer
Search
 
 
Thu Apr 17, 2014 16:35:39 ISTHomeTrainsΣChainsAtlasPNRForumGalleryNewsFAQTripsMembersLoginFeedback
No Recent News for this Train
Other Trains in the News **new
Latest...
.
Fri Jun 21, 2013 (01:39AM)
⇐ Return Journey: Train# 14312

14311/Ala Hazrat Express (via Ahmedabad)

Feb 28 2014 (7:37PM)
Change Departure Station:
Change Arrival Station:
Post a Train Travel TipPost a Train Travel Tip **new
Post a Comment/Question/Picture/VideoPost a Comment/Question/Picture/Video
Pantry/Catering
✕ NO Pantry Car
✓ Catering Avbl
Loco/Rake Reversals
GIMB/Gandhidham Junction (3); ADI/Ahmedabad Junction (12);
RSA - Rake Sharing
Rake/Coach Composition
SLR- GEN-S1 TO S10, B2, B1, A1- GEN
Loco
WDM 3d 11170 of IZN
News    PNR    Forum    Time-Table    Availability    Fare Chart    Map    Arr/Dep History    Trips    Gallery    ΣChains    X/O    Timeline    
Travel Time: 27h 55m    37 halts    Distance: 1343 km    Avg Speed: 48 km/hr
Type: Mail/Express
Zone: NR/Northern
Departs @ 10:05 (Avg 13m late)
Platform# 1
S   TF 
Pilkhua/PKW 
Arrives @ 14:00 +1 night (Avg 3m early)
Platform# 2
 M   FS
Bhuj/BHUJ 

37 halts. 213 intermediate Stations between Pilkhua and Bhuj

Show ALL intermediate Stations  Show Old Time-Table

#CodeStation NameX/OArrivesAvgDepartsAvgHaltPFDay#KmSpeedElevZoneAddress
1BEBareilly Junction (4)  -06:05+241-205.463174mNRBareilly, Uttar Pradesh
2MILMilak  06:43+1406:45+162m--1-165.566180mNRMilak, Uttar Pradesh
3RMURampur Junction (3)X  07:06+2007:08+232m--1-142.426190mNRRampur, Uttar Pradesh
4MBMoradabad Junction (7)  08:10+108:20+510m11-115.168201mNRMoradabad, Uttar Pradesh
5AMROAmroha (3)X  08:47+908:49+102m21-84.676217mNRAmroha, Uttar Pradesh
6HPUHapur Junction (4)  09:47+909:52+95m11-11.161214mNRHapur Jn., Uttar Pradesh
7PKW»Pilkhua (3)»X  10:03+1210:05+132m110.036218mNRPilkhuwa, Uttar Pradesh
8GZBGhaziabad Junction (6)X  10:48+810:50+82m3125.634217mNRGhaziabad, Uttar Pradesh
9DLIOld Delhi Junction (16)  11:25+1811:40+2015m12145.618219mNRNear Chandni Chowk Metro Station, Delhi NCT
10DEEDelhi Sarai Rohilla (5)X  11:55+2411:57+242m1150.036226mNRNew Rohtak road, Delhi NCT
11DECDelhi Cantt. (5)  12:13+2612:15+272m1159.738217mNRDelhi, Delhi NCT
12PMPalam (3)X  12:21+3112:23+312m2163.567222mNRNew Delhi - 110010, Delhi NCT
13GGNGurgaon (3)  12:35+3112:37+312m1176.966217mNRGurgaon, Haryana
14GHHGarhi Harsaru (3)  12:46+3212:48+332m--186.879220mNRGurgaon, Haryana
15PTRDPataudi RoadX  13:03+3313:05+332m--1106.533227mNRHailley Mandi, Haryana
16RERewari Junction (8)  13:45+2713:55+2410m11128.284245mNWRRewari, Haryana
17KRHKhairthal (2)  14:29+2914:31+292m21175.878305mNWRKhairthal, Rajasthan
18AWRAlwar Junction (2)  14:52+3114:55+323m21203.088267mNWRAlwar, Rajasthan
19MKHMalakhera (1)X  15:08+3615:10+362m11222.178265mNWRMala Khera, Rajasthan
20RHGRajgarh (2)15:23+3415:25+342m--1239.174303mNWRRajgarh, Rajasthan
21BKIBandikui Junction (6)X  15:45+3915:50+395m--1263.686283mNWRBandikui, Rajasthan
22DODausa (2)X  16:10+4316:12+432m11292.455333mNWRDausa, Rajasthan
23GADJJaipur Gandhinagar (2)X  17:13+2717:15+292m--1348.416426mNWRJaipur, Rajasthan
24JPJaipur Junction (7)X  17:35+2118:00+1525m21353.983434mNWRJaipur, Rajasthan
25FLPhulera Junction (5)  18:40+2318:42+232m--1408.966386mNWRPhulera, Rajasthan
26NRINarainaX  18:51+2718:53+272m--1418.979377mNWRAjmer, Rajasthan
27KSGKishangarh (3)X  19:24+2619:26+272m11459.827443mNWRKishangarh, Rajasthan
28AIIAjmer Junction (5)X  20:30+1220:35+185m21488.575464mNWRPin: 305001, Rajasthan
29BERBeawar (2)  21:17+2221:19+222m--1540.881447mNWRBeawar, Rajasthan
30MJMarwar Junction (4)  22:24+2422:26+292m21628.165267mNWRMarwar Junction, Rajasthan
31FAFalna (2)X  23:27+3023:29+332m--1694.669282mNWRFalna, Rajasthan
32ABRAbu Road (3)X  00:55+4101:05+4210m22793.533264mNWRSirohi Dist, Rajasthan
33PNUPalanpur Junction (5)  02:40+602:42+152m22846.145216mWRPalanpur, Gujarat
34MSHMahesana Junction (6)  04:08+804:10+192m12911.13595mWRMehsana, Gujarat
35ADIAhmedabad Junction (12)X06:15+1206:45+2030m12984.15451mWRAhmedabad, Gujarat
36VGViramgam Junction (5)  07:58+1808:00+182m121049.55729mWRViramgam, Gujarat
37DHGDhrangadhra Junction (3)  09:08+1209:10+132m--21114.26654mWRDhrangadhra, Gujarat
38HVDHalvad  09:38+1609:40+162m--21145.17346mWRHalvad, Gujarat
39MALBMaliya Miyana Junction (2)10:18+1810:20+172m--21191.1456mWRMalia, Gujarat
40SIOBSamakhiali Junction (3)  11:12+411:14+42m121230.36442mWRSamakhiali, Gujarat
41BCOBBhachau (3)  11:29+711:31+82m121246.25244mWRBhachau, Gujarat
42GIMBGandhidham Junction (3)12:15+112:40+425m121284.16612mWRGandhidham, Gujarat
43AIAdipur Junction (2)  12:48+1012:50+102m--21292.94436mWRDist. Kachchh, Gujarat
44AJEAnjar (1)  13:00+1213:02+122m121300.24553mWRAnjar, Gujarat
45BHUJ•Bhuj (3)•  14:00-3-221343.2-89mWRBhuj - 370201, Gujarat
Scroll to Top
Scroll to Bottom